Time;durP1;ratioP1;P1;durP2;ratioP2;P2;SDS_P1;SDS_P2;PMS_P1;PMS_P2;Temp;Humidity;BMP_temperature;BMP_pressure;BME280_temperature;BME280_humidity;BME280_pressure;Samples;Min_cycle;Max_cycle;Signal;HPM_P1;HPM_P2
2021/12/28 00:01:06;;;;;;;1.23;0.80;;;19.20;37.60;;;;;;5114168;28;20043;-66
2021/12/28 00:03:32;;;;;;;1.08;0.50;;;19.10;37.80;;;;;;5113852;28;20047;-66
2021/12/28 00:06:00;;;;;;;0.60;0.45;;;19.00;38.00;;;;;;5114117;28;20039;-66
2021/12/28 00:08:26;;;;;;;1.00;0.70;;;18.90;38.20;;;;;;5115085;28;20114;-65
2021/12/28 00:10:53;;;;;;;1.30;0.70;;;18.70;38.30;;;;;;5115171;28;20036;-65
2021/12/28 00:13:19;;;;;;;1.05;0.68;;;18.60;38.50;;;;;;5114993;28;20039;-66
2021/12/28 00:15:50;;;;;;;0.93;0.55;;;18.50;38.80;;;;;;5114334;28;20080;-65
2021/12/28 00:18:17;;;;;;;1.33;0.70;;;18.40;39.00;;;;;;5114831;28;20382;-67
2021/12/28 00:20:48;;;;;;;0.95;0.60;;;18.30;39.30;;;;;;5113672;28;20120;-65
2021/12/28 00:23:18;;;;;;;1.52;0.65;;;18.10;39.40;;;;;;5113428;28;20053;-65
2021/12/28 00:25:47;;;;;;;0.70;0.50;;;18.00;39.70;;;;;;5113876;28;20414;-67
2021/12/28 00:28:14;;;;;;;1.00;0.70;;;17.90;39.80;;;;;;5113828;28;20047;-65
2021/12/28 00:30:40;;;;;;;1.75;0.60;;;17.80;40.80;;;;;;5113416;28;20035;-66
2021/12/28 00:33:07;;;;;;;1.63;0.77;;;17.70;40.20;;;;;;5114731;28;20043;-66
2021/12/28 00:35:36;;;;;;;1.15;0.85;;;17.60;40.40;;;;;;5113452;28;20536;-65
2021/12/28 00:38:04;;;;;;;1.42;0.70;;;17.50;40.60;;;;;;5113497;28;20047;-65
2021/12/28 00:40:30;;;;;;;1.92;0.60;;;17.40;40.80;;;;;;5113511;28;20043;-65
2021/12/28 00:42:56;;;;;;;0.90;0.65;;;17.40;41.00;;;;;;5112914;28;20067;-65
2021/12/28 00:45:22;;;;;;;0.88;0.47;;;17.20;41.10;;;;;;5114199;28;20039;-66
2021/12/28 00:47:48;;;;;;;1.65;0.88;;;17.20;41.30;;;;;;5113335;28;20123;-65
2021/12/28 00:50:16;;;;;;;1.35;0.75;;;17.10;41.50;;;;;;5114369;28;20035;-65
2021/12/28 00:52:43;;;;;;;1.08;0.70;;;17.00;41.70;;;;;;5113282;28;20035;-64
2021/12/28 00:55:10;;;;;;;1.30;0.90;;;16.90;41.80;;;;;;5112848;28;20036;-65
2021/12/28 00:57:39;;;;;;;1.48;0.88;;;16.80;42.10;;;;;;5112815;28;20054;-66
2021/12/28 01:00:09;;;;;;;1.08;0.80;;;16.80;42.40;;;;;;5113048;28;20398;-66
2021/12/28 01:02:35;;;;;;;0.85;0.68;;;16.70;42.40;;;;;;5114085;28;20054;-65
2021/12/28 01:05:01;;;;;;;1.40;1.27;;;16.60;42.50;;;;;;5112932;28;20035;-65
2021/12/28 01:07:26;;;;;;;2.13;1.25;;;16.60;42.70;;;;;;5112833;28;20398;-65
2021/12/28 01:09:52;;;;;;;1.40;1.23;;;16.50;42.90;;;;;;5112616;28;20383;-66
2021/12/28 01:12:18;;;;;;;2.03;1.50;;;16.50;43.10;;;;;;5113881;28;20039;-65
2021/12/28 01:14:44;;;;;;;2.88;1.80;;;16.40;43.30;;;;;;5112297;28;20540;-65
2021/12/28 01:17:10;;;;;;;2.33;1.48;;;16.30;43.50;;;;;;5112777;28;20053;-65
2021/12/28 01:19:36;;;;;;;2.10;1.67;;;16.30;43.60;;;;;;5113821;28;20040;-65
2021/12/28 01:22:03;;;;;;;1.58;1.42;;;16.20;43.70;;;;;;5112307;28;20566;-65
2021/12/28 01:24:30;;;;;;;1.83;1.73;;;16.20;43.90;;;;;;5113569;28;20387;-66
2021/12/28 01:26:56;;;;;;;1.67;1.58;;;16.10;44.10;;;;;;5112693;28;20092;-65
2021/12/28 01:29:22;;;;;;;2.40;1.85;;;16.00;44.20;;;;;;5113382;28;20036;-65
2021/12/28 01:31:47;;;;;;;2.05;1.40;;;16.00;44.40;;;;;;5112141;28;20047;-65
2021/12/28 01:34:13;;;;;;;1.77;1.67;;;15.90;44.50;;;;;;5112073;28;20100;-66
2021/12/28 01:36:39;;;;;;;2.08;1.80;;;15.90;44.70;;;;;;5112039;28;20032;-64
2021/12/28 01:39:08;;;;;;;3.53;1.75;;;15.80;44.80;;;;;;5113316;28;20089;-67
2021/12/28 01:41:35;;;;;;;1.88;1.38;;;15.80;45.10;;;;;;5113173;28;20075;-66
2021/12/28 01:44:05;;;;;;;2.75;1.95;;;15.80;45.20;;;;;;5111549;28;20055;-66
2021/12/28 01:46:32;;;;;;;2.37;1.87;;;15.70;45.30;;;;;;5112018;28;20055;-64
2021/12/28 01:48:58;;;;;;;2.28;1.70;;;15.70;45.30;;;;;;5113083;28;20046;-65
2021/12/28 01:51:27;;;;;;;2.30;1.60;;;15.60;45.50;;;;;;5113133;28;20106;-64
2021/12/28 01:53:56;;;;;;;2.30;2.10;;;15.60;45.60;;;;;;5111742;28;20066;-67
2021/12/28 01:56:26;;;;;;;2.83;1.75;;;15.60;45.70;;;;;;5112911;28;20475;-64
2021/12/28 01:58:53;;;;;;;2.30;2.03;;;15.60;45.80;;;;;;5112914;28;20114;-67
2021/12/28 02:01:19;;;;;;;2.78;1.98;;;15.50;45.80;;;;;;5111570;28;20490;-64
2021/12/28 02:03:46;;;;;;;2.42;2.10;;;15.50;45.90;;;;;;5111487;28;20055;-65
2021/12/28 02:06:12;;;;;;;2.65;2.38;;;15.50;46.00;;;;;;5112793;28;20397;-66
2021/12/28 02:08:39;;;;;;;3.03;2.70;;;15.50;46.10;;;;;;5111750;28;20084;-65
2021/12/28 02:11:10;;;;;;;4.45;2.60;;;15.40;46.20;;;;;;5112661;28;20043;-65
2021/12/28 02:13:35;;;;;;;;;;;15.40;46.20;;;;;;5112025;28;20054;-66
2021/12/28 02:16:01;;;;;;;2.40;2.20;;;15.40;46.70;;;;;;5128724;27;20347;-65
2021/12/28 02:18:32;;;;;;;2.97;2.55;;;15.40;46.40;;;;;;5111308;28;20471;-67
2021/12/28 02:20:59;;;;;;;3.92;2.55;;;15.30;46.60;;;;;;5111588;28;20471;-67
2021/12/28 02:23:25;;;;;;;2.42;2.03;;;15.30;46.60;;;;;;5111348;28;20431;-65
2021/12/28 02:25:52;;;;;;;2.90;2.50;;;15.30;46.70;;;;;;5111579;28;20078;-66
2021/12/28 02:28:18;;;;;;;2.58;2.38;;;15.30;46.80;;;;;;5111417;28;20047;-65
2021/12/28 02:30:46;;;;;;;2.58;2.35;;;15.20;46.80;;;;;;5111493;28;20039;-65
2021/12/28 02:33:13;;;;;;;3.10;2.40;;;15.20;46.90;;;;;;5111075;28;20044;-64
2021/12/28 02:35:39;;;;;;;3.00;2.67;;;15.20;46.90;;;;;;5111266;28;20138;-64
2021/12/28 02:38:07;;;;;;;3.08;2.08;;;15.20;47.00;;;;;;5111094;28;20051;-65
2021/12/28 02:40:33;;;;;;;3.08;2.55;;;15.20;47.10;;;;;;5112384;28;20039;-66
2021/12/28 02:43:01;;;;;;;3.00;2.50;;;15.20;47.00;;;;;;5111967;28;20056;-66
2021/12/28 02:45:30;;;;;;;4.25;2.03;;;15.20;47.10;;;;;;5111152;28;20047;-66
2021/12/28 02:47:57;;;;;;;2.88;2.20;;;15.20;47.10;;;;;;5111265;28;20372;-65
2021/12/28 02:50:27;;;;;;;2.42;2.10;;;15.20;47.00;;;;;;5111025;28;20536;-65
2021/12/28 02:52:54;;;;;;;3.97;2.15;;;15.20;47.10;;;;;;5110963;28;20047;-66
2021/12/28 02:55:21;;;;;;;3.33;1.92;;;15.20;47.10;;;;;;5112282;28;20115;-64
2021/12/28 02:57:51;;;;;;;2.97;2.40;;;15.20;47.10;;;;;;5110880;28;20095;-66
2021/12/28 03:00:31;;;;;;;2.35;2.00;;;15.20;47.10;;;;;;5112204;28;20377;-65
2021/12/28 03:02:57;;;;;;;;;;;15.20;47.20;;;;;;5112592;28;20043;-66
2021/12/28 03:05:23;;;;;;;3.38;1.92;;;15.20;47.30;;;;;;5110868;28;19939;-66
2021/12/28 03:07:49;;;;;;;3.05;1.75;;;15.20;47.00;;;;;;5112005;28;20035;-65
2021/12/28 03:10:15;;;;;;;2.47;2.15;;;15.20;47.10;;;;;;5110789;28;20035;-65
2021/12/28 03:12:43;;;;;;;2.30;2.10;;;15.20;47.10;;;;;;5111025;28;20137;-65
2021/12/28 03:15:09;;;;;;;1.85;1.67;;;15.20;47.20;;;;;;5112177;28;20032;-67
2021/12/28 03:17:37;;;;;;;3.50;1.85;;;15.20;47.20;;;;;;5110704;28;20395;-65
2021/12/28 03:20:11;;;;;;;3.38;2.88;;;15.20;47.10;;;;;;5112169;28;20028;-66
2021/12/28 03:22:37;;;;;;;3.63;2.17;;;15.20;47.20;;;;;;5111895;28;20120;-65
2021/12/28 03:25:04;;;;;;;2.63;1.67;;;15.20;47.20;;;;;;5110584;28;20043;-65
2021/12/28 03:27:30;;;;;;;2.95;2.10;;;15.10;47.10;;;;;;5110904;28;20425;-64
2021/12/28 03:29:56;;;;;;;3.45;1.60;;;15.10;47.20;;;;;;5112007;28;20035;-66
2021/12/28 03:32:24;;;;;;;3.17;2.15;;;15.10;47.20;;;;;;5111973;28;20039;-65
2021/12/28 03:34:50;;;;;;;4.57;2.13;;;15.10;47.30;;;;;;5110766;28;20036;-66
2021/12/28 03:37:15;;;;;;;1.83;1.73;;;15.10;47.30;;;;;;5111884;28;20036;-65
2021/12/28 03:39:41;;;;;;;2.15;1.90;;;15.10;47.30;;;;;;5110450;28;20484;-66
2021/12/28 03:42:08;;;;;;;2.92;1.90;;;15.10;47.30;;;;;;5110252;28;20039;-64
2021/12/28 03:44:34;;;;;;;3.97;2.35;;;15.10;47.30;;;;;;5110485;28;20056;-65
2021/12/28 03:47:01;;;;;;;3.13;2.10;;;15.10;47.40;;;;;;5111832;28;20071;-64
2021/12/28 03:49:27;;;;;;;2.28;2.05;;;15.00;48.10;;;;;;5111452;28;20043;-65
2021/12/28 03:51:53;;;;;;;2.40;2.20;;;15.00;47.50;;;;;;5115423;28;20042;-64
2021/12/28 03:54:21;;;;;;;4.05;2.75;;;15.00;47.50;;;;;;5114293;28;20491;-66
2021/12/28 03:56:47;;;;;;;2.75;2.03;;;15.00;47.60;;;;;;5114026;28;20547;-67
2021/12/28 03:59:13;;;;;;;2.67;1.70;;;15.00;47.60;;;;;;5113902;28;20036;-64
2021/12/28 04:01:38;;;;;;;1.90;1.67;;;15.00;47.60;;;;;;5114125;28;20168;-66
2021/12/28 04:04:04;;;;;;;3.17;1.85;;;15.00;47.70;;;;;;5115213;28;20082;-66
2021/12/28 04:06:31;;;;;;;3.35;1.65;;;15.00;47.80;;;;;;5113896;28;20070;-64
2021/12/28 04:08:58;;;;;;;3.38;1.60;;;15.00;47.90;;;;;;5115073;28;20054;-66
2021/12/28 04:11:27;;;;;;;4.65;1.58;;;15.10;47.60;;;;;;5114095;28;20165;-66
2021/12/28 04:13:56;;;;;;;3.35;1.40;;;15.20;47.40;;;;;;5113721;28;20048;-67
2021/12/28 04:16:22;;;;;;;2.03;0.90;;;15.50;47.10;;;;;;5113613;28;20040;-68
2021/12/28 04:18:48;;;;;;;2.17;0.93;;;15.70;46.60;;;;;;5113687;28;20043;-66
2021/12/28 04:21:17;;;;;;;1.52;1.05;;;16.00;46.10;;;;;;5114840;28;20039;-67
2021/12/28 04:23:43;;;;;;;1.58;0.80;;;16.40;45.40;;;;;;5113743;28;20035;-67
2021/12/28 04:26:09;;;;;;;1.80;1.15;;;17.00;44.30;;;;;;5113413;28;20118;-67
2021/12/28 04:28:35;;;;;;;1.33;0.73;;;17.60;43.20;;;;;;5113537;28;20039;-68
2021/12/28 04:31:01;;;;;;;1.83;0.82;;;18.10;42.30;;;;;;5113678;28;20038;-67
2021/12/28 04:33:27;;;;;;;2.17;1.15;;;18.50;41.40;;;;;;5114724;28;20070;-69
2021/12/28 04:35:53;;;;;;;1.65;0.68;;;18.90;40.80;;;;;;5113282;28;20514;-67
2021/12/28 04:38:21;;;;;;;1.13;0.93;;;19.10;40.50;;;;;;5113429;28;20060;-68
2021/12/28 04:40:47;;;;;;;2.30;0.90;;;19.20;40.20;;;;;;5113443;28;20100;-67
2021/12/28 04:43:13;;;;;;;2.70;0.80;;;19.30;40.10;;;;;;5114142;28;20539;-67
2021/12/28 04:45:39;;;;;;;1.10;0.50;;;19.40;39.90;;;;;;5113330;28;20054;-67
2021/12/28 04:48:07;;;;;;;1.40;0.57;;;19.50;39.80;;;;;;5113403;28;20056;-67
2021/12/28 04:50:37;;;;;;;1.35;0.50;;;19.50;39.60;;;;;;5113339;28;20036;-68
2021/12/28 04:53:08;;;;;;;1.40;0.70;;;19.60;39.40;;;;;;5114181;28;20047;-67
2021/12/28 04:55:35;;;;;;;2.45;1.15;;;19.70;39.30;;;;;;5114423;28;20046;-67
2021/12/28 04:58:03;;;;;;;1.77;0.60;;;19.70;39.30;;;;;;5114220;28;20399;-66
2021/12/28 05:00:29;;;;;;;1.38;0.63;;;19.60;39.20;;;;;;5114190;28;20122;-68
2021/12/28 05:02:56;;;;;;;1.08;0.60;;;19.60;39.20;;;;;;5114016;28;20039;-68
2021/12/28 05:05:22;;;;;;;1.95;0.77;;;19.60;39.20;;;;;;5114045;28;20047;-68
2021/12/28 05:07:48;;;;;;;2.38;0.63;;;19.50;39.40;;;;;;5112516;28;20059;-67
2021/12/28 05:10:13;;;;;;;2.20;0.70;;;19.40;39.50;;;;;;5113935;28;20089;-66
2021/12/28 05:12:39;;;;;;;1.73;0.63;;;19.30;39.70;;;;;;5114006;28;20531;-66
2021/12/28 05:15:06;;;;;;;1.58;0.70;;;19.10;39.80;;;;;;5112668;28;20039;-66
2021/12/28 05:17:32;;;;;;;1.23;0.68;;;19.10;40.00;;;;;;5113744;28;20402;-66
2021/12/28 05:19:58;;;;;;;1.80;0.65;;;18.90;40.10;;;;;;5113684;28;20046;-67
2021/12/28 05:22:24;;;;;;;1.83;0.63;;;18.80;40.30;;;;;;5113456;28;20130;-68
2021/12/28 05:24:50;;;;;;;1.23;0.50;;;18.70;40.50;;;;;;5113575;28;20131;-67
2021/12/28 05:27:16;;;;;;;1.73;0.70;;;18.50;40.70;;;;;;5112222;28;20039;-68
2021/12/28 05:29:43;;;;;;;2.05;0.70;;;18.40;40.90;;;;;;5113676;28;20044;-67
2021/12/28 05:32:09;;;;;;;2.25;0.73;;;18.30;41.20;;;;;;5112119;28;20067;-68
2021/12/28 05:34:34;;;;;;;1.35;0.70;;;18.20;41.40;;;;;;5113494;28;20087;-67
2021/12/28 05:37:00;;;;;;;1.23;0.68;;;18.10;41.70;;;;;;5112067;28;20043;-66
2021/12/28 05:39:26;;;;;;;1.63;0.50;;;18.00;42.00;;;;;;5112012;28;20039;-67
2021/12/28 05:41:51;;;;;;;2.20;0.57;;;17.90;42.20;;;;;;5112257;28;20035;-66
2021/12/28 05:44:18;;;;;;;2.03;0.85;;;17.80;42.40;;;;;;5111713;28;20495;-67
2021/12/28 05:46:47;;;;;;;1.60;0.70;;;17.60;42.50;;;;;;5112218;28;20424;-68
2021/12/28 05:49:13;;;;;;;1.75;0.90;;;17.50;42.80;;;;;;5112228;28;20092;-67
2021/12/28 05:51:39;;;;;;;1.85;1.10;;;17.40;43.00;;;;;;5111803;28;20499;-67
2021/12/28 05:54:04;;;;;;;1.17;0.63;;;17.30;43.20;;;;;;5113039;28;20047;-68
2021/12/28 05:56:30;;;;;;;1.65;0.60;;;17.30;43.40;;;;;;5111789;28;20052;-67
2021/12/28 05:58:58;;;;;;;1.30;0.52;;;17.10;43.60;;;;;;5111701;28;20089;-68
2021/12/28 06:01:24;;;;;;;2.05;0.60;;;17.10;43.80;;;;;;5113166;28;20084;-67
2021/12/28 06:03:50;;;;;;;1.83;0.80;;;17.00;44.10;;;;;;5111507;28;20036;-67
2021/12/28 06:06:18;;;;;;;1.65;0.63;;;16.90;44.20;;;;;;5111575;28;20040;-67
2021/12/28 06:08:44;;;;;;;2.17;0.95;;;16.80;44.40;;;;;;5112718;28;20042;-68
2021/12/28 06:11:12;;;;;;;2.05;0.80;;;16.80;44.70;;;;;;5112966;28;20084;-68
2021/12/28 06:13:40;;;;;;;2.55;0.80;;;16.70;44.80;;;;;;5111049;28;20122;-68
2021/12/28 06:16:14;;;;;;;3.40;1.20;;;16.70;45.00;;;;;;5111827;28;20674;-66
2021/12/28 06:18:40;;;;;;;2.30;1.08;;;16.60;45.20;;;;;;5111672;28;20051;-66
2021/12/28 06:21:07;;;;;;;3.72;0.77;;;16.50;45.40;;;;;;5111272;28;20047;-67
2021/12/28 06:23:33;;;;;;;1.45;0.70;;;16.40;45.50;;;;;;5111241;28;20483;-69
2021/12/28 06:25:58;;;;;;;2.80;0.70;;;16.40;45.70;;;;;;5111494;28;20044;-65
2021/12/28 06:28:24;;;;;;;2.40;0.50;;;16.30;45.90;;;;;;5111505;28;20077;-66
2021/12/28 06:30:50;;;;;;;2.42;0.70;;;16.20;46.00;;;;;;5112563;28;20032;-65
2021/12/28 06:33:16;;;;;;;2.22;0.80;;;16.10;46.20;;;;;;5112747;28;20040;-65
2021/12/28 06:35:42;;;;;;;2.30;0.60;;;16.10;46.30;;;;;;5112425;28;20078;-65
2021/12/28 06:38:07;;;;;;;1.48;0.68;;;16.00;46.50;;;;;;5111054;28;20043;-64
2021/12/28 06:40:33;;;;;;;4.03;0.82;;;15.90;46.60;;;;;;5111050;28;20123;-64
2021/12/28 06:42:59;;;;;;;2.80;1.13;;;15.90;46.90;;;;;;5110794;28;20048;-64
2021/12/28 06:45:25;;;;;;;2.00;0.80;;;15.80;47.10;;;;;;5112368;28;20115;-65
2021/12/28 06:47:51;;;;;;;1.92;0.82;;;15.80;47.20;;;;;;5112308;28;20503;-64
2021/12/28 06:50:17;;;;;;;2.75;0.90;;;15.70;47.30;;;;;;5112240;28;20057;-65
2021/12/28 06:52:42;;;;;;;2.72;1.05;;;15.70;47.50;;;;;;5111238;28;20451;-65
2021/12/28 06:55:11;;;;;;;2.60;0.82;;;15.70;47.60;;;;;;5112361;28;20035;-65
2021/12/28 06:57:37;;;;;;;3.40;0.88;;;15.60;47.70;;;;;;5111172;28;20534;-65
2021/12/28 07:00:07;;;;;;;4.28;1.48;;;15.60;47.70;;;;;;5110930;28;20126;-66
2021/12/28 07:02:33;;;;;;;2.22;0.82;;;15.60;47.90;;;;;;5110869;28;20051;-64
2021/12/28 07:04:59;;;;;;;3.53;1.02;;;15.50;47.90;;;;;;5112175;28;20036;-67
2021/12/28 07:07:24;;;;;;;1.73;0.80;;;15.50;48.00;;;;;;5110990;28;20729;-65
2021/12/28 07:09:50;;;;;;;2.40;0.88;;;15.50;48.10;;;;;;5112243;28;20375;-65
2021/12/28 07:12:15;;;;;;;3.65;1.30;;;15.40;48.20;;;;;;5111035;28;20441;-64
2021/12/28 07:14:41;;;;;;;2.53;0.93;;;15.40;48.30;;;;;;5112123;28;20035;-65
2021/12/28 07:17:07;;;;;;;1.90;0.68;;;15.40;48.40;;;;;;5110839;28;20491;-66
2021/12/28 07:19:32;;;;;;;2.55;1.30;;;15.30;48.40;;;;;;5112016;28;20060;-64
2021/12/28 07:21:59;;;;;;;2.55;1.00;;;15.30;48.40;;;;;;5110559;28;20309;-66
2021/12/28 07:24:24;;;;;;;2.70;0.98;;;15.30;48.50;;;;;;5111480;28;20047;-66
2021/12/28 07:26:50;;;;;;;3.10;1.05;;;15.30;48.60;;;;;;5114852;28;20036;-64
2021/12/28 07:29:16;;;;;;;2.80;0.98;;;15.30;48.60;;;;;;5114905;28;20047;-65
2021/12/28 07:31:42;;;;;;;2.25;1.10;;;15.30;48.70;;;;;;5114725;28;20047;-66
2021/12/28 07:34:11;;;;;;;3.67;1.02;;;15.20;48.70;;;;;;5115933;28;20035;-65
2021/12/28 07:36:37;;;;;;;3.72;1.10;;;15.20;48.80;;;;;;5114694;28;20063;-66
2021/12/28 07:39:04;;;;;;;1.60;0.95;;;15.20;48.80;;;;;;5114661;28;20035;-64
2021/12/28 07:41:30;;;;;;;2.65;1.13;;;15.20;48.90;;;;;;5115674;28;20028;-64
2021/12/28 07:43:56;;;;;;;3.42;1.00;;;15.10;48.90;;;;;;5114034;28;20517;-66
2021/12/28 07:46:25;;;;;;;3.50;0.95;;;15.10;48.90;;;;;;5114772;28;20047;-65
2021/12/28 07:48:51;;;;;;;6.95;1.10;;;15.10;48.90;;;;;;5114297;28;20047;-64
2021/12/28 07:51:17;;;;;;;2.17;0.80;;;15.10;48.90;;;;;;5114369;28;20031;-66
2021/12/28 07:53:43;;;;;;;2.70;0.68;;;15.10;48.90;;;;;;5114044;28;20482;-66
2021/12/28 07:56:08;;;;;;;3.15;0.68;;;15.10;48.90;;;;;;5114107;28;20330;-66
2021/12/28 07:58:37;;;;;;;4.18;1.17;;;15.10;48.90;;;;;;5115258;28;20044;-66
2021/12/28 08:01:03;;;;;;;2.58;1.17;;;15.10;48.90;;;;;;5114072;28;20453;-65
2021/12/28 08:03:29;;;;;;;2.88;0.68;;;15.10;49.00;;;;;;5113856;28;20118;-65
2021/12/28 08:05:54;;;;;;;2.92;0.80;;;15.10;49.00;;;;;;5115274;28;20127;-65
2021/12/28 08:08:20;;;;;;;3.28;0.95;;;15.10;49.00;;;;;;5113655;28;20047;-66
2021/12/28 08:10:47;;;;;;;6.55;1.08;;;15.10;49.00;;;;;;5113749;28;20040;-66
2021/12/28 08:13:13;;;;;;;2.75;1.05;;;15.10;49.10;;;;;;5115012;28;20064;-65
2021/12/28 08:15:39;;;;;;;3.47;1.02;;;15.10;49.20;;;;;;5113856;28;20497;-64
2021/12/28 08:18:09;;;;;;;4.13;0.70;;;15.10;49.20;;;;;;5113905;28;20043;-64
2021/12/28 08:20:35;;;;;;;4.13;0.73;;;15.00;49.20;;;;;;5113576;28;20054;-65
2021/12/28 08:23:02;;;;;;;3.97;0.70;;;15.10;49.30;;;;;;5114728;28;20055;-66
2021/12/28 08:25:28;;;;;;;2.22;0.60;;;15.10;49.20;;;;;;5113559;28;20046;-65
2021/12/28 08:27:54;;;;;;;2.70;0.65;;;15.20;49.10;;;;;;5113493;28;20036;-64
2021/12/28 08:30:20;;;;;;;1.55;0.57;;;15.30;48.80;;;;;;5113703;28;20169;-65
2021/12/28 08:32:50;;;;;;;2.63;0.77;;;15.60;48.50;;;;;;5113636;28;20130;-67
2021/12/28 08:35:19;;;;;;;3.23;0.60;;;15.80;48.10;;;;;;5113201;28;20142;-66
2021/12/28 08:37:45;;;;;;;1.83;0.40;;;16.10;47.50;;;;;;5113457;28;20092;-66
2021/12/28 08:40:13;;;;;;;3.55;0.63;;;16.50;46.80;;;;;;5114685;28;20092;-67
2021/12/28 08:42:39;;;;;;;2.10;0.40;;;17.00;45.70;;;;;;5112855;28;20518;-64
2021/12/28 08:45:06;;;;;;;1.83;0.60;;;17.60;44.70;;;;;;5114434;28;20043;-65
2021/12/28 08:47:33;;;;;;;2.53;0.47;;;18.10;43.60;;;;;;5114439;28;20040;-65
2021/12/28 08:50:06;;;;;;;3.00;0.73;;;18.70;42.70;;;;;;5114479;28;20403;-64
2021/12/28 08:52:32;;;;;;;1.48;0.40;;;19.20;41.70;;;;;;5113176;28;20368;-64
2021/12/28 08:54:57;;;;;;;1.55;0.30;;;19.50;41.30;;;;;;5114387;28;20065;-64
2021/12/28 08:57:23;;;;;;;1.33;0.38;;;19.60;41.00;;;;;;5114352;28;20040;-65
2021/12/28 08:59:49;;;;;;;2.92;0.40;;;19.70;40.80;;;;;;5112831;28;20075;-65
2021/12/28 09:02:15;;;;;;;2.45;0.60;;;19.80;40.70;;;;;;5112947;28;20098;-66
2021/12/28 09:04:43;;;;;;;3.08;0.50;;;19.90;40.50;;;;;;5112960;28;20075;-66
2021/12/28 09:07:10;;;;;;;3.10;0.60;;;20.00;40.30;;;;;;5112705;28;20043;-65
2021/12/28 09:09:36;;;;;;;2.22;0.65;;;20.10;40.00;;;;;;5112592;28;20388;-65
2021/12/28 09:12:05;;;;;;;2.30;0.60;;;20.10;39.80;;;;;;5112652;28;20126;-65
2021/12/28 09:14:32;;;;;;;1.63;0.30;;;20.20;39.70;;;;;;5113859;28;20040;-68
2021/12/28 09:16:58;;;;;;;1.58;0.47;;;20.20;39.60;;;;;;5112531;28;20047;-64
2021/12/28 09:19:24;;;;;;;2.28;0.40;;;20.20;39.60;;;;;;5112504;28;20039;-65
2021/12/28 09:21:50;;;;;;;2.53;0.50;;;20.10;39.60;;;;;;5112505;28;20042;-65
2021/12/28 09:24:15;;;;;;;2.10;0.30;;;20.10;39.60;;;;;;5113938;28;20040;-65
2021/12/28 09:26:41;;;;;;;2.95;0.50;;;20.00;39.70;;;;;;5112257;28;20131;-65
2021/12/28 09:29:07;;;;;;;2.92;0.25;;;19.90;39.80;;;;;;5113721;28;20043;-66
2021/12/28 09:31:34;;;;;;;2.42;0.35;;;19.80;39.90;;;;;;5113530;28;20419;-66
2021/12/28 09:34:00;;;;;;;2.35;0.40;;;19.70;40.10;;;;;;5113462;28;20071;-65
2021/12/28 09:36:29;;;;;;;2.78;0.98;;;19.60;40.30;;;;;;5113324;28;20075;-64
2021/12/28 09:38:55;;;;;;;2.07;0.40;;;19.50;40.40;;;;;;5112398;28;20483;-66
2021/12/28 09:41:21;;;;;;;1.42;0.32;;;19.40;40.60;;;;;;5112362;28;20360;-65
2021/12/28 09:43:47;;;;;;;3.20;0.70;;;19.30;40.80;;;;;;5111883;28;20662;-65
2021/12/28 09:46:12;;;;;;;1.58;0.30;;;19.10;41.00;;;;;;5113207;28;20043;-64
2021/12/28 09:48:38;;;;;;;3.25;0.50;;;19.00;41.30;;;;;;5111531;28;20062;-65
2021/12/28 09:51:06;;;;;;;3.00;0.68;;;18.80;41.50;;;;;;5113015;28;20471;-65
2021/12/28 09:53:32;;;;;;;3.05;0.40;;;18.70;41.70;;;;;;5113118;28;20069;-64
2021/12/28 09:55:58;;;;;;;1.95;0.50;;;18.50;42.00;;;;;;5111734;28;20044;-64
2021/12/28 09:58:24;;;;;;;1.67;0.47;;;18.40;42.40;;;;;;5113201;28;20040;-65
2021/12/28 10:00:50;;;;;;;2.83;0.45;;;18.30;42.70;;;;;;5111785;28;20072;-66
2021/12/28 10:03:18;;;;;;;1.83;0.43;;;18.20;43.00;;;;;;5111688;28;20043;-65
2021/12/28 10:05:44;;;;;;;2.85;0.65;;;18.00;43.30;;;;;;5111746;28;20528;-65
2021/12/28 10:08:10;;;;;;;2.70;0.50;;;17.90;43.50;;;;;;5111442;28;20039;-66
2021/12/28 10:10:39;;;;;;;3.42;0.70;;;17.80;43.90;;;;;;5111867;28;20036;-65
2021/12/28 10:13:08;;;;;;;3.92;1.05;;;17.70;44.20;;;;;;5111561;28;20055;-66
2021/12/28 10:15:39;;;;;;;3.58;0.57;;;17.60;44.50;;;;;;5111390;28;20086;-66
2021/12/28 10:18:08;;;;;;;4.32;1.27;;;17.50;44.80;;;;;;5112717;28;20043;-64
2021/12/28 10:20:39;;;;;;;3.15;0.82;;;17.40;45.00;;;;;;5112613;28;20044;-64
2021/12/28 10:23:10;;;;;;;2.38;0.50;;;17.30;45.30;;;;;;5112583;28;20120;-65
2021/12/28 10:28:33;;;;;;;1.00;0.40;;;17.10;45.80;;;;;;5150929;27;20105;-65
2021/12/28 10:31:05;;;;;;;4.07;0.60;;;17.00;46.00;;;;;;5129282;28;20047;-64
2021/12/28 10:33:36;;;;;;;2.17;0.70;;;17.00;46.30;;;;;;5129142;28;20043;-66
2021/12/28 10:36:13;;;;;;;1.73;0.40;;;16.90;46.40;;;;;;5130236;27;20089;-65
2021/12/28 10:38:46;;;;;;;2.00;0.52;;;16.80;46.70;;;;;;5130082;27;20043;-66
2021/12/28 10:41:14;;;;;;;2.20;0.50;;;16.80;46.90;;;;;;5129064;28;20042;-65
2021/12/28 10:43:45;;;;;;;3.13;0.88;;;16.70;47.00;;;;;;5128618;28;20390;-65
2021/12/28 10:46:15;;;;;;;2.42;0.73;;;16.60;47.20;;;;;;5128758;28;20437;-64
2021/12/28 10:48:46;;;;;;;2.63;0.50;;;16.60;47.40;;;;;;5128941;28;20483;-66
2021/12/28 10:51:15;;;;;;;3.13;0.57;;;16.50;47.50;;;;;;5130119;27;20119;-65
2021/12/28 10:54:17;;;;;;;2.70;0.90;;;16.50;47.70;;;;;;5128789;28;20089;-65
2021/12/28 10:56:35;;;;;;;3.15;0.52;;;16.40;47.80;;;;;;5129727;28;20066;-64
2021/12/28 10:59:03;;;;;;;2.08;0.77;;;16.40;48.00;;;;;;5129879;27;20055;-65
2021/12/28 11:01:33;;;;;;;3.15;0.70;;;16.40;48.20;;;;;;5128698;28;20483;-64
2021/12/28 11:04:03;;;;;;;1.98;0.52;;;16.30;48.30;;;;;;5128345;28;20126;-65
2021/12/28 11:06:32;;;;;;;2.97;0.43;;;16.30;48.50;;;;;;5128544;28;20055;-65
2021/12/28 11:11:40;;;;;;;2.25;0.73;;;16.20;48.60;;;;;;5130386;27;20406;-65
2021/12/28 11:14:13;;;;;;;1.50;0.68;;;16.10;48.90;;;;;;5130122;27;20028;-64
2021/12/28 11:16:39;;;;;;;3.65;0.63;;;16.10;49.20;;;;;;5128063;28;20075;-66
2021/12/28 11:19:08;;;;;;;3.00;0.50;;;16.00;49.30;;;;;;5128254;28;20458;-68
2021/12/28 11:21:39;;;;;;;1.88;0.50;;;16.00;50.20;;;;;;5129925;27;20493;-66
2021/12/28 11:24:10;;;;;;;1.85;0.40;;;16.00;49.90;;;;;;5127941;28;20326;-65
2021/12/28 11:29:20;;;;;;;7.25;0.40;;;16.00;50.00;;;;;;5130390;27;20375;-64
2021/12/28 11:31:50;;;;;;;;;;;16.20;50.10;;;;;;5129585;28;20036;-63
2021/12/28 11:34:26;;;;;;;1.13;0.28;;;16.30;50.20;;;;;;5128712;28;19912;-63
2021/12/28 11:36:57;;;;;;;7.00;0.52;;;16.40;49.60;;;;;;5130537;27;20023;-63
2021/12/28 11:39:26;;;;;;;;;;;16.50;49.20;;;;;;5130548;27;20042;-65
2021/12/28 11:41:53;;;;;;;2.03;0.63;;;16.90;49.20;;;;;;5128851;28;19912;-64
2021/12/28 11:44:20;;;;;;;3.55;0.43;;;17.20;48.10;;;;;;5129066;28;20035;-64
2021/12/28 11:46:46;;;;;;;2.20;0.30;;;17.90;46.80;;;;;;5127625;28;20046;-65
2021/12/28 11:49:14;;;;;;;12.73;0.80;;;18.60;45.30;;;;;;5128941;28;20035;-63
2021/12/28 11:51:42;;;;;;;2.88;0.30;;;19.30;44.30;;;;;;5129715;27;20523;-63
2021/12/28 11:54:11;;;;;;;2.17;0.50;;;19.80;43.30;;;;;;5130482;27;20043;-63
2021/12/28 11:56:40;;;;;;;2.78;0.50;;;20.30;42.10;;;;;;5132818;27;20035;-63
2021/12/28 11:59:16;;;;;;;2.10;0.30;;;20.80;41.30;;;;;;5128626;28;20047;-63
2021/12/28 12:12:45;;;;;;;0.93;0.20;;;21.10;40.90;;;;;;5152600;27;1174015;-63
2021/12/28 12:15:12;;;;;;;1.45;0.28;;;21.50;40.30;;;;;;5171821;27;20260;-66
2021/12/28 12:17:43;;;;;;;3.17;0.40;;;21.60;40.30;;;;;;5151769;27;20034;-66
2021/12/28 12:23:19;;;;;;;1.90;0.30;;;21.70;40.10;;;;;;5145342;27;20449;-65
2021/12/28 12:25:51;;;;;;;2.42;0.30;;;22.40;39.20;;;;;;5128795;28;20050;-66
2021/12/28 12:28:29;;;;;;;3.60;0.30;;;22.70;38.40;;;;;;5128923;28;20039;-65
2021/12/28 12:30:59;;;;;;;2.00;0.20;;;23.10;37.80;;;;;;5128866;28;20118;-68
2021/12/28 12:33:35;;;;;;;1.10;0.20;;;23.20;37.70;;;;;;5128179;28;20106;-65
2021/12/28 12:36:01;;;;;;;1.52;0.38;;;23.40;37.60;;;;;;5128669;28;20036;-65
2021/12/28 12:43:55;;;;;;;1.23;0.10;;;23.70;36.90;;;;;;5128613;27;20402;-65
2021/12/28 12:46:39;;;;;;;0.80;0.20;;;24.40;35.60;;;;;;5128647;27;20043;-65
2021/12/28 12:49:11;;;;;;;0.80;0.20;;;24.40;35.50;;;;;;5130160;27;20035;-66
2021/12/28 12:51:46;;;;;;;1.05;0.20;;;24.40;35.40;;;;;;5128867;28;20050;-65
2021/12/28 12:54:22;;;;;;;0.80;0.10;;;24.30;35.30;;;;;;5129173;28;20082;-65
2021/12/28 13:05:01;;;;;;;2.40;0.10;;;23.90;35.80;;;;;;5110025;27;20381;-65
2021/12/28 13:07:30;;;;;;;0.57;0.10;;;23.50;36.10;;;;;;5091664;28;20117;-66
2021/12/28 13:12:42;;;;;;;1.48;0.10;;;23.40;36.40;;;;;;5130230;27;20387;-65
2021/12/28 13:15:10;;;;;;;2.28;0.20;;;23.10;36.70;;;;;;5130110;27;20126;-66
2021/12/28 13:17:39;;;;;;;0.90;0.10;;;23.10;36.90;;;;;;5129155;28;20123;-66
2021/12/28 13:25:36;;;;;;;0.57;0.10;;;23.00;36.80;;;;;;5130270;27;20410;-66
2021/12/28 13:28:06;;;;;;;0.63;0.00;;;23.00;36.70;;;;;;5128939;28;20138;-66
2021/12/28 13:30:42;;;;;;;0.80;0.10;;;23.10;36.70;;;;;;5129193;28;20047;-65
2021/12/28 13:33:08;;;;;;;0.98;0.10;;;23.10;36.60;;;;;;5128979;28;20107;-65